sensor_id;sensor_type;location;lat;lon;timestamp;pressure;altitude;pressure_sealevel;temperature;humidity
42945;BME280;28584;42.636;23.294;2023-02-17T00:01:25;158792.91;;;0.88;100.00
42945;BME280;28584;42.636;23.294;2023-02-17T00:03:51;158765.13;;;0.77;100.00
42945;BME280;28584;42.636;23.294;2023-02-17T00:06:19;158758.50;;;0.75;100.00
42945;BME280;28584;42.636;23.294;2023-02-17T00:08:45;158741.25;;;0.68;100.00
42945;BME280;28584;42.636;23.294;2023-02-17T00:11:11;158783.69;;;0.84;100.00
42945;BME280;28584;42.636;23.294;2023-02-17T00:13:37;158811.47;;;0.95;100.00
42945;BME280;28584;42.636;23.294;2023-02-17T00:16:17;158803.53;;;0.92;100.00
42945;BME280;28584;42.636;23.294;2023-02-17T00:18:42;158819.44;;;0.98;100.00
42945;BME280;28584;42.636;23.294;2023-02-17T00:21:16;158823.41;;;0.99;100.00
42945;BME280;28584;42.636;23.294;2023-02-17T00:23:43;158819.44;;;0.98;100.00
42945;BME280;28584;42.636;23.294;2023-02-17T00:26:09;158814.16;;;0.96;100.00
42945;BME280;28584;42.636;23.294;2023-02-17T00:28:35;158784.97;;;0.85;100.00
42945;BME280;28584;42.636;23.294;2023-02-17T00:31:13;158742.59;;;0.69;100.00
42945;BME280;28584;42.636;23.294;2023-02-17T00:33:39;158745.22;;;0.70;100.00
42945;BME280;28584;42.636;23.294;2023-02-17T00:36:07;158709.47;;;0.56;100.00
42945;BME280;28584;42.636;23.294;2023-02-17T00:38:33;158681.63;;;0.46;100.00
42945;BME280;28584;42.636;23.294;2023-02-17T00:40:58;158676.34;;;0.44;100.00
42945;BME280;28584;42.636;23.294;2023-02-17T00:43:24;158688.25;;;0.48;100.00
42945;BME280;28584;42.636;23.294;2023-02-17T00:45:49;158641.91;;;0.31;100.00
42945;BME280;28584;42.636;23.294;2023-02-17T00:48:15;158612.75;;;0.20;100.00
42945;BME280;28584;42.636;23.294;2023-02-17T00:50:40;158623.34;;;0.24;100.00
42945;BME280;28584;42.636;23.294;2023-02-17T00:53:05;158615.41;;;0.21;100.00
42945;BME280;28584;42.636;23.294;2023-02-17T00:55:31;158702.81;;;0.54;100.00
42945;BME280;28584;42.636;23.294;2023-02-17T00:57:57;158758.50;;;0.75;100.00
42945;BME280;28584;42.636;23.294;2023-02-17T01:00:22;158766.41;;;0.78;100.00
42945;BME280;28584;42.636;23.294;2023-02-17T01:02:48;158778.34;;;0.82;100.00
42945;BME280;28584;42.636;23.294;2023-02-17T01:05:13;158841.97;;;1.06;100.00
42945;BME280;28584;42.636;23.294;2023-02-17T01:07:38;158867.16;;;1.16;100.00
42945;BME280;28584;42.636;23.294;2023-02-17T01:10:06;158875.09;;;1.19;100.00
42945;BME280;28584;42.636;23.294;2023-02-17T01:12:32;158880.44;;;1.21;100.00
42945;BME280;28584;42.636;23.294;2023-02-17T01:14:57;158853.91;;;1.11;100.00
42945;BME280;28584;42.636;23.294;2023-02-17T01:17:23;158830.03;;;1.02;100.00
42945;BME280;28584;42.636;23.294;2023-02-17T01:19:48;158824.75;;;1.00;100.00
42945;BME280;28584;42.636;23.294;2023-02-17T01:22:13;158831.38;;;1.02;100.00
42945;BME280;28584;42.636;23.294;2023-02-17T01:24:39;158816.81;;;0.97;100.00
42945;BME280;28584;42.636;23.294;2023-02-17T01:27:04;158834.00;;;1.03;100.00
42945;BME280;28584;42.636;23.294;2023-02-17T01:29:30;158798.25;;;0.90;100.00
42945;BME280;28584;42.636;23.294;2023-02-17T01:31:55;158769.09;;;0.79;100.00
42945;BME280;28584;42.636;23.294;2023-02-17T01:34:20;158830.03;;;1.02;100.00
42945;BME280;28584;42.636;23.294;2023-02-17T01:36:46;158820.78;;;0.98;100.00
42945;BME280;28584;42.636;23.294;2023-02-17T01:39:15;158767.75;;;0.78;100.00
42945;BME280;28584;42.636;23.294;2023-02-17T01:41:41;158713.44;;;0.58;100.00
42945;BME280;28584;42.636;23.294;2023-02-17T01:44:17;158702.81;;;0.54;100.00
42945;BME280;28584;42.636;23.294;2023-02-17T01:46:45;158710.75;;;0.57;100.00
42945;BME280;28584;42.636;23.294;2023-02-17T01:51:46;158750.56;;;0.72;100.00
42945;BME280;28584;42.636;23.294;2023-02-17T01:54:27;158791.63;;;0.87;100.00
42945;BME280;28584;42.636;23.294;2023-02-17T01:56:55;158761.16;;;0.76;100.00
42945;BME280;28584;42.636;23.294;2023-02-17T01:59:21;158710.75;;;0.57;100.00
42945;BME280;28584;42.636;23.294;2023-02-17T02:01:51;158681.63;;;0.46;100.00
42945;BME280;28584;42.636;23.294;2023-02-17T02:04:20;158663.06;;;0.39;100.00
42945;BME280;28584;42.636;23.294;2023-02-17T02:06:46;158655.13;;;0.36;100.00
42945;BME280;28584;42.636;23.294;2023-02-17T02:09:21;158610.09;;;0.19;100.00
42945;BME280;28584;42.636;23.294;2023-02-17T02:11:49;158665.72;;;0.40;100.00
42945;BME280;28584;42.636;23.294;2023-02-17T02:14:15;158639.25;;;0.30;100.00
42945;BME280;28584;42.636;23.294;2023-02-17T02:30:43;158644.53;;;0.32;100.00
42945;BME280;28584;42.636;23.294;2023-02-17T02:36:09;158558.44;;;-0.01;100.00
42945;BME280;28584;42.636;23.294;2023-02-17T02:38:40;158512.13;;;-0.19;100.00
42945;BME280;28584;42.636;23.294;2023-02-17T02:41:21;158489.59;;;-0.27;100.00
42945;BME280;28584;42.636;23.294;2023-02-17T02:43:48;158479.03;;;-0.31;100.00
42945;BME280;28584;42.636;23.294;2023-02-17T02:46:14;158476.34;;;-0.32;100.00
42945;BME280;28584;42.636;23.294;2023-02-17T02:48:40;158471.06;;;-0.34;100.00
42945;BME280;28584;42.636;23.294;2023-02-17T02:54:05;158485.63;;;-0.29;100.00
42945;BME280;28584;42.636;23.294;2023-02-17T03:02:10;158588.91;;;0.11;100.00
42945;BME280;28584;42.636;23.294;2023-02-17T03:07:14;158580.94;;;0.08;100.00
42945;BME280;28584;42.636;23.294;2023-02-17T03:09:50;158608.78;;;0.18;100.00
42945;BME280;28584;42.636;23.294;2023-02-17T03:12:17;158620.72;;;0.23;100.00
42945;BME280;28584;42.636;23.294;2023-02-17T03:14:43;158592.88;;;0.12;100.00
42945;BME280;28584;42.636;23.294;2023-02-17T03:17:09;158580.94;;;0.08;100.00
42945;BME280;28584;42.636;23.294;2023-02-17T03:19:35;158582.28;;;0.08;100.00
42945;BME280;28584;42.636;23.294;2023-02-17T03:22:26;158575.69;;;0.06;100.00
42945;BME280;28584;42.636;23.294;2023-02-17T03:24:54;158588.91;;;0.11;100.00
42945;BME280;28584;42.636;23.294;2023-02-17T03:27:19;158590.25;;;0.11;100.00
42945;BME280;28584;42.636;23.294;2023-02-17T03:29:45;158563.75;;;0.01;100.00
42945;BME280;28584;42.636;23.294;2023-02-17T03:32:10;158702.81;;;0.54;100.00
42945;BME280;28584;42.636;23.294;2023-02-17T03:34:36;159235.94;;;2.55;100.00
42945;BME280;28584;42.636;23.294;2023-02-17T03:37:01;159216.03;;;2.47;99.70
42945;BME280;28584;42.636;23.294;2023-02-17T03:39:27;159104.56;;;2.05;100.00
42945;BME280;28584;42.636;23.294;2023-02-17T03:41:52;159079.38;;;1.96;100.00
42945;BME280;28584;42.636;23.294;2023-02-17T03:44:18;158973.25;;;1.56;100.00
42945;BME280;28584;42.636;23.294;2023-02-17T03:46:45;158891.03;;;1.25;100.00
42945;BME280;28584;42.636;23.294;2023-02-17T03:49:11;158830.03;;;1.02;100.00
42945;BME280;28584;42.636;23.294;2023-02-17T03:51:37;158782.34;;;0.84;100.00
42945;BME280;28584;42.636;23.294;2023-02-17T03:54:02;158763.78;;;0.77;100.00
42945;BME280;28584;42.636;23.294;2023-02-17T03:56:28;158761.16;;;0.76;100.00
42945;BME280;28584;42.636;23.294;2023-02-17T03:58:54;158784.97;;;0.85;100.00
42945;BME280;28584;42.636;23.294;2023-02-17T04:01:19;158769.09;;;0.79;100.00
42945;BME280;28584;42.636;23.294;2023-02-17T04:03:45;158729.31;;;0.64;100.00
42945;BME280;28584;42.636;23.294;2023-02-17T04:06:10;158682.97;;;0.46;100.00
42945;BME280;28584;42.636;23.294;2023-02-17T04:08:37;158647.16;;;0.33;100.00
42945;BME280;28584;42.636;23.294;2023-02-17T04:11:04;158660.44;;;0.38;100.00
42945;BME280;28584;42.636;23.294;2023-02-17T04:13:29;158686.94;;;0.48;100.00
42945;BME280;28584;42.636;23.294;2023-02-17T04:15:55;158669.69;;;0.41;100.00
42945;BME280;28584;42.636;23.294;2023-02-17T04:18:21;158659.09;;;0.37;100.00
42945;BME280;28584;42.636;23.294;2023-02-17T04:20:48;158665.72;;;0.40;100.00
42945;BME280;28584;42.636;23.294;2023-02-17T04:23:14;158656.47;;;0.36;100.00
42945;BME280;28584;42.636;23.294;2023-02-17T04:25:40;158633.94;;;0.28;100.00
42945;BME280;28584;42.636;23.294;2023-02-17T04:28:06;158657.81;;;0.37;100.00
42945;BME280;28584;42.636;23.294;2023-02-17T04:30:32;158656.47;;;0.36;100.00
42945;BME280;28584;42.636;23.294;2023-02-17T04:32:58;158633.94;;;0.28;100.00
42945;BME280;28584;42.636;23.294;2023-02-17T04:35:24;158661.72;;;0.38;100.00
42945;BME280;28584;42.636;23.294;2023-02-17T04:37:50;158651.16;;;0.34;100.00
42945;BME280;28584;42.636;23.294;2023-02-17T04:40:16;158672.38;;;0.42;100.00
42945;BME280;28584;42.636;23.294;2023-02-17T04:42:41;158673.66;;;0.43;100.00
42945;BME280;28584;42.636;23.294;2023-02-17T04:45:07;158626.00;;;0.25;100.00
42945;BME280;28584;42.636;23.294;2023-02-17T04:47:33;158637.91;;;0.29;100.00
42945;BME280;28584;42.636;23.294;2023-02-17T04:49:58;158626.00;;;0.25;100.00
42945;BME280;28584;42.636;23.294;2023-02-17T04:52:24;158607.44;;;0.18;100.00
42945;BME280;28584;42.636;23.294;2023-02-17T04:54:50;158604.81;;;0.17;100.00
42945;BME280;28584;42.636;23.294;2023-02-17T04:57:15;158558.44;;;-0.01;100.00
42945;BME280;28584;42.636;23.294;2023-02-17T04:59:40;158570.34;;;0.03;100.00
42945;BME280;28584;42.636;23.294;2023-02-17T05:02:06;158543.88;;;-0.07;100.00
42945;BME280;28584;42.636;23.294;2023-02-17T05:04:31;158514.75;;;-0.18;100.00
42945;BME280;28584;42.636;23.294;2023-02-17T05:06:57;158494.88;;;-0.25;100.00
42945;BME280;28584;42.636;23.294;2023-02-17T05:09:22;158482.94;;;-0.30;100.00
42945;BME280;28584;42.636;23.294;2023-02-17T05:11:48;158496.22;;;-0.25;100.00
42945;BME280;28584;42.636;23.294;2023-02-17T05:14:13;158506.78;;;-0.21;100.00
42945;BME280;28584;42.636;23.294;2023-02-17T05:16:38;158509.44;;;-0.20;100.00
42945;BME280;28584;42.636;23.294;2023-02-17T05:19:04;158526.66;;;-0.13;100.00
42945;BME280;28584;42.636;23.294;2023-02-17T05:21:30;158509.44;;;-0.20;100.00
42945;BME280;28584;42.636;23.294;2023-02-17T05:23:55;158521.34;;;-0.15;100.00
42945;BME280;28584;42.636;23.294;2023-02-17T05:26:20;158527.97;;;-0.13;100.00
42945;BME280;28584;42.636;23.294;2023-02-17T05:28:46;158530.66;;;-0.12;100.00
42945;BME280;28584;42.636;23.294;2023-02-17T05:31:11;158533.28;;;-0.11;100.00
42945;BME280;28584;42.636;23.294;2023-02-17T05:33:37;158547.84;;;-0.05;100.00
42945;BME280;28584;42.636;23.294;2023-02-17T05:36:06;158550.47;;;-0.04;100.00
42945;BME280;28584;42.636;23.294;2023-02-17T05:38:32;158551.81;;;-0.04;100.00
42945;BME280;28584;42.636;23.294;2023-02-17T05:40:58;158546.50;;;-0.06;100.00
42945;BME280;28584;42.636;23.294;2023-02-17T05:43:23;158576.97;;;0.06;100.00
42945;BME280;28584;42.636;23.294;2023-02-17T05:45:48;158588.91;;;0.11;100.00
42945;BME280;28584;42.636;23.294;2023-02-17T05:48:14;158599.50;;;0.15;100.00
42945;BME280;28584;42.636;23.294;2023-02-17T05:50:39;158668.41;;;0.41;100.00
42945;BME280;28584;42.636;23.294;2023-02-17T05:53:05;158857.91;;;1.12;100.00
42945;BME280;28584;42.636;23.294;2023-02-17T05:55:30;158859.25;;;1.13;100.00
42945;BME280;28584;42.636;23.294;2023-02-17T05:57:56;158838.00;;;1.05;100.00
42945;BME280;28584;42.636;23.294;2023-02-17T06:00:21;158844.63;;;1.07;100.00
42945;BME280;28584;42.636;23.294;2023-02-17T06:02:47;158828.75;;;1.01;100.00
42945;BME280;28584;42.636;23.294;2023-02-17T06:05:12;158877.78;;;1.20;100.00
42945;BME280;28584;42.636;23.294;2023-02-17T06:07:37;158925.50;;;1.38;100.00
42945;BME280;28584;42.636;23.294;2023-02-17T06:10:03;158971.91;;;1.55;100.00
42945;BME280;28584;42.636;23.294;2023-02-17T06:12:29;159023.63;;;1.75;100.00
42945;BME280;28584;42.636;23.294;2023-02-17T06:14:54;159079.38;;;1.96;100.00
42945;BME280;28584;42.636;23.294;2023-02-17T06:17:20;159124.44;;;2.13;100.00
42945;BME280;28584;42.636;23.294;2023-02-17T06:19:45;159140.38;;;2.19;100.00
42945;BME280;28584;42.636;23.294;2023-02-17T06:22:10;159147.00;;;2.21;100.00
42945;BME280;28584;42.636;23.294;2023-02-17T06:24:36;159180.16;;;2.34;100.00
42945;BME280;28584;42.636;23.294;2023-02-17T06:27:01;159237.25;;;2.55;100.00
42945;BME280;28584;42.636;23.294;2023-02-17T06:29:26;159323.53;;;2.88;100.00
42945;BME280;28584;42.636;23.294;2023-02-17T06:31:52;159392.59;;;3.14;100.00
42945;BME280;28584;42.636;23.294;2023-02-17T06:34:18;159427.09;;;3.27;100.00
42945;BME280;28584;42.636;23.294;2023-02-17T06:36:43;159573.22;;;3.82;92.35
42945;BME280;28584;42.636;23.294;2023-02-17T06:39:09;159708.78;;;4.33;86.38
42945;BME280;28584;42.636;23.294;2023-02-17T06:41:34;159853.69;;;4.88;76.05
42945;BME280;28584;42.636;23.294;2023-02-17T06:44:00;159998.72;;;5.42;71.95
42945;BME280;28584;42.636;23.294;2023-02-17T06:46:25;160134.47;;;5.94;67.66
42945;BME280;28584;42.636;23.294;2023-02-17T06:48:50;160170.44;;;6.07;64.53
42945;BME280;28584;42.636;23.294;2023-02-17T06:51:16;160222.34;;;6.27;62.50
42945;BME280;28584;42.636;23.294;2023-02-17T06:53:41;160284.91;;;6.50;62.52
42945;BME280;28584;42.636;23.294;2023-02-17T06:56:07;160275.63;;;6.47;61.07
42945;BME280;28584;42.636;23.294;2023-02-17T06:58:32;160323.56;;;6.65;61.29
42945;BME280;28584;42.636;23.294;2023-02-17T07:00:59;160374.16;;;6.84;60.62
42945;BME280;28584;42.636;23.294;2023-02-17T07:03:25;160452.75;;;7.13;60.11
42945;BME280;28584;42.636;23.294;2023-02-17T07:05:56;160538.06;;;7.45;58.54
42945;BME280;28584;42.636;23.294;2023-02-17T07:08:21;160587.34;;;7.64;57.18
42945;BME280;28584;42.636;23.294;2023-02-17T07:10:46;160271.63;;;6.45;59.78
42945;BME280;28584;42.636;23.294;2023-02-17T07:13:12;160430.09;;;7.05;61.23
42945;BME280;28584;42.636;23.294;2023-02-17T07:15:37;160436.78;;;7.07;60.96
42945;BME280;28584;42.636;23.294;2023-02-17T07:18:02;160444.75;;;7.10;61.32
42945;BME280;28584;42.636;23.294;2023-02-17T07:20:28;160374.16;;;6.84;61.57
42945;BME280;28584;42.636;23.294;2023-02-17T07:22:56;160411.44;;;6.98;61.99
42945;BME280;28584;42.636;23.294;2023-02-17T07:25:21;160504.69;;;7.33;60.66
42945;BME280;28584;42.636;23.294;2023-02-17T07:27:47;160590.03;;;7.65;59.90
42945;BME280;28584;42.636;23.294;2023-02-17T07:30:12;160644.66;;;7.85;58.90
42945;BME280;28584;42.636;23.294;2023-02-17T07:32:38;160692.66;;;8.03;57.27
42945;BME280;28584;42.636;23.294;2023-02-17T07:35:03;160678.00;;;7.98;55.74
42945;BME280;28584;42.636;23.294;2023-02-17T07:37:29;160803.41;;;8.45;55.35
42945;BME280;28584;42.636;23.294;2023-02-17T07:39:54;160878.09;;;8.73;54.15
42945;BME280;28584;42.636;23.294;2023-02-17T07:42:21;160955.47;;;9.02;54.06
42945;BME280;28584;42.636;23.294;2023-02-17T07:44:47;161014.22;;;9.24;53.57
42945;BME280;28584;42.636;23.294;2023-02-17T07:47:12;160964.81;;;9.06;53.70
42945;BME280;28584;42.636;23.294;2023-02-17T07:49:37;161088.94;;;9.52;53.68
42945;BME280;28584;42.636;23.294;2023-02-17T07:52:03;161213.13;;;9.99;51.95
42945;BME280;28584;42.636;23.294;2023-02-17T07:54:29;160868.72;;;8.70;52.77
42945;BME280;28584;42.636;23.294;2023-02-17T07:56:54;161047.56;;;9.37;53.20
42945;BME280;28584;42.636;23.294;2023-02-17T07:59:19;160856.78;;;8.65;53.96
42945;BME280;28584;42.636;23.294;2023-02-17T08:01:45;160563.38;;;7.55;55.92
42945;BME280;28584;42.636;23.294;2023-02-17T08:04:10;160676.69;;;7.97;56.61
42945;BME280;28584;42.636;23.294;2023-02-17T08:06:37;160826.09;;;8.54;55.56
42945;BME280;28584;42.636;23.294;2023-02-17T08:09:04;160920.81;;;8.89;53.75
42945;BME280;28584;42.636;23.294;2023-02-17T08:11:48;161011.50;;;9.23;52.74
42945;BME280;28584;42.636;23.294;2023-02-17T08:14:32;160899.44;;;8.81;52.35
42945;BME280;28584;42.636;23.294;2023-02-17T08:16:58;160891.41;;;8.78;52.92
42945;BME280;28584;42.636;23.294;2023-02-17T08:19:24;160968.84;;;9.07;53.53
42945;BME280;28584;42.636;23.294;2023-02-17T08:21:50;160971.50;;;9.08;53.24
42945;BME280;28584;42.636;23.294;2023-02-17T08:24:16;160987.50;;;9.14;54.17
42945;BME280;28584;42.636;23.294;2023-02-17T08:26:43;160996.81;;;9.18;53.11
42945;BME280;28584;42.636;23.294;2023-02-17T08:29:09;160938.13;;;8.96;53.96
42945;BME280;28584;42.636;23.294;2023-02-17T08:31:35;161062.25;;;9.42;53.47
42945;BME280;28584;42.636;23.294;2023-02-17T08:34:05;161112.94;;;9.61;52.84
42945;BME280;28584;42.636;23.294;2023-02-17T08:36:31;161179.75;;;9.86;52.13
42945;BME280;28584;42.636;23.294;2023-02-17T08:38:57;161181.03;;;9.87;52.10
42945;BME280;28584;42.636;23.294;2023-02-17T08:41:24;161279.94;;;10.24;52.15
42945;BME280;28584;42.636;23.294;2023-02-17T08:43:50;161170.38;;;9.83;51.91
42945;BME280;28584;42.636;23.294;2023-02-17T08:46:19;161067.56;;;9.44;52.14
42945;BME280;28584;42.636;23.294;2023-02-17T08:48:45;160995.53;;;9.17;53.18
42945;BME280;28584;42.636;23.294;2023-02-17T08:51:15;161175.72;;;9.85;51.82
42945;BME280;28584;42.636;23.294;2023-02-17T08:53:42;161108.94;;;9.60;53.30
42945;BME280;28584;42.636;23.294;2023-02-17T08:56:07;161193.06;;;9.91;51.86
42945;BME280;28584;42.636;23.294;2023-02-17T08:58:33;161302.63;;;10.32;52.13
42945;BME280;28584;42.636;23.294;2023-02-17T09:00:59;161402.81;;;10.70;44.49
42945;BME280;28584;42.636;23.294;2023-02-17T09:03:25;161470.97;;;10.95;40.55
42945;BME280;28584;42.636;23.294;2023-02-17T09:05:55;161580.56;;;11.37;39.53
42945;BME280;28584;42.636;23.294;2023-02-17T09:08:20;161588.59;;;11.40;39.00
42945;BME280;28584;42.636;23.294;2023-02-17T09:10:46;161635.38;;;11.57;38.02
42945;BME280;28584;42.636;23.294;2023-02-17T09:13:11;161659.50;;;11.66;37.81
42945;BME280;28584;42.636;23.294;2023-02-17T09:15:37;161628.69;;;11.55;37.19
42945;BME280;28584;42.636;23.294;2023-02-17T09:18:02;161587.25;;;11.39;38.35
42945;BME280;28584;42.636;23.294;2023-02-17T09:20:28;161504.38;;;11.08;38.31
42945;BME280;28584;42.636;23.294;2023-02-17T09:22:53;161500.34;;;11.06;38.26
42945;BME280;28584;42.636;23.294;2023-02-17T09:25:19;161496.34;;;11.05;38.41
42945;BME280;28584;42.636;23.294;2023-02-17T09:27:44;161437.56;;;10.83;38.34
42945;BME280;28584;42.636;23.294;2023-02-17T09:30:10;161388.13;;;10.64;38.99
42945;BME280;28584;42.636;23.294;2023-02-17T09:32:35;161434.91;;;10.82;39.42
42945;BME280;28584;42.636;23.294;2023-02-17T09:35:01;161469.63;;;10.95;38.90
42945;BME280;28584;42.636;23.294;2023-02-17T09:37:30;161428.19;;;10.79;38.74
42945;BME280;28584;42.636;23.294;2023-02-17T09:39:55;161401.50;;;10.69;38.59
42945;BME280;28584;42.636;23.294;2023-02-17T09:42:23;161377.44;;;10.60;38.70
42945;BME280;28584;42.636;23.294;2023-02-17T09:44:54;161402.81;;;10.70;38.55
42945;BME280;28584;42.636;23.294;2023-02-17T09:47:24;161420.22;;;10.76;38.35
42945;BME280;28584;42.636;23.294;2023-02-17T09:49:59;161446.91;;;10.86;38.44
42945;BME280;28584;42.636;23.294;2023-02-17T09:52:46;161460.28;;;10.91;38.53
42945;BME280;28584;42.636;23.294;2023-02-17T09:55:23;161481.66;;;10.99;38.08
42945;BME280;28584;42.636;23.294;2023-02-17T09:58:00;161508.38;;;11.09;37.99
42945;BME280;28584;42.636;23.294;2023-02-17T10:00:38;161462.94;;;10.92;37.25
42945;BME280;28584;42.636;23.294;2023-02-17T10:06:04;161470.97;;;10.95;37.96
42945;BME280;28584;42.636;23.294;2023-02-17T10:08:39;161446.91;;;10.86;37.74
42945;BME280;28584;42.636;23.294;2023-02-17T10:11:17;161450.91;;;10.88;37.66
42945;BME280;28584;42.636;23.294;2023-02-17T10:13:46;161505.72;;;11.08;37.09
42945;BME280;28584;42.636;23.294;2023-02-17T10:16:31;161519.06;;;11.13;37.67
42945;BME280;28584;42.636;23.294;2023-02-17T10:19:09;161476.34;;;10.97;36.70
42945;BME280;28584;42.636;23.294;2023-02-17T10:21:41;161470.97;;;10.95;37.54
42945;BME280;28584;42.636;23.294;2023-02-17T10:24:08;161504.38;;;11.08;37.41
42945;BME280;28584;42.636;23.294;2023-02-17T10:30:07;161477.63;;;10.98;37.70
42945;BME280;28584;42.636;23.294;2023-02-17T10:33:01;161516.41;;;11.12;38.42
42945;BME280;28584;42.636;23.294;2023-02-17T10:38:32;161484.38;;;11.00;37.60
42945;BME280;28584;42.636;23.294;2023-02-17T10:41:02;161513.75;;;11.11;38.41
42945;BME280;28584;42.636;23.294;2023-02-17T10:43:30;161549.81;;;11.25;38.60
42945;BME280;28584;42.636;23.294;2023-02-17T10:45:59;161549.81;;;11.25;38.43
42945;BME280;28584;42.636;23.294;2023-02-17T10:48:42;161527.09;;;11.16;38.28
42945;BME280;28584;42.636;23.294;2023-02-17T10:51:13;161559.19;;;11.29;38.44
42945;BME280;28584;42.636;23.294;2023-02-17T10:53:40;161548.47;;;11.24;38.40
42945;BME280;28584;42.636;23.294;2023-02-17T11:01:11;161509.75;;;11.10;38.15
42945;BME280;28584;42.636;23.294;2023-02-17T11:03:37;161503.06;;;11.07;37.94
42945;BME280;28584;42.636;23.294;2023-02-17T11:06:19;161572.53;;;11.34;38.74
42945;BME280;28584;42.636;23.294;2023-02-17T11:09:05;161572.53;;;11.34;38.34
42945;BME280;28584;42.636;23.294;2023-02-17T11:11:36;161564.53;;;11.31;38.24
42945;BME280;28584;42.636;23.294;2023-02-17T11:16:48;161533.78;;;11.19;38.85
42945;BME280;28584;42.636;23.294;2023-02-17T11:19:25;161584.59;;;11.38;38.91
42945;BME280;28584;42.636;23.294;2023-02-17T11:21:52;161607.31;;;11.47;38.67
42945;BME280;28584;42.636;23.294;2023-02-17T11:24:18;161604.66;;;11.46;38.47
42945;BME280;28584;42.636;23.294;2023-02-17T11:26:54;161589.91;;;11.40;37.78
42945;BME280;28584;42.636;23.294;2023-02-17T11:29:21;161600.63;;;11.44;38.15
42945;BME280;28584;42.636;23.294;2023-02-17T11:31:59;161615.34;;;11.50;39.07
42945;BME280;28584;42.636;23.294;2023-02-17T11:34:27;161548.47;;;11.24;39.12
42945;BME280;28584;42.636;23.294;2023-02-17T11:39:23;161580.56;;;11.37;39.28
42945;BME280;28584;42.636;23.294;2023-02-17T11:41:49;161600.63;;;11.44;40.08
42945;BME280;28584;42.636;23.294;2023-02-17T11:44:26;161616.66;;;11.50;39.44
42945;BME280;28584;42.636;23.294;2023-02-17T11:57:38;161691.56;;;11.78;39.10
42945;BME280;28584;42.636;23.294;2023-02-17T12:00:21;161699.59;;;11.81;38.42
42945;BME280;28584;42.636;23.294;2023-02-17T12:16:31;161620.66;;;11.52;41.17
42945;BME280;28584;42.636;23.294;2023-02-17T12:19:10;161638.06;;;11.58;41.43
42945;BME280;28584;42.636;23.294;2023-02-17T12:35:55;161635.38;;;11.57;42.67
42945;BME280;28584;42.636;23.294;2023-02-17T12:38:29;161636.72;;;11.58;42.10
42945;BME280;28584;42.636;23.294;2023-02-17T12:41:09;161654.13;;;11.64;42.54
42945;BME280;28584;42.636;23.294;2023-02-17T12:43:54;161636.72;;;11.58;42.12
42945;BME280;28584;42.636;23.294;2023-02-17T12:46:42;161660.84;;;11.67;42.07
42945;BME280;28584;42.636;23.294;2023-02-17T12:52:18;161699.59;;;11.81;42.04
42945;BME280;28584;42.636;23.294;2023-02-17T13:00:25;161667.53;;;11.69;41.81
42945;BME280;28584;42.636;23.294;2023-02-17T13:02:57;161674.22;;;11.72;42.08
42945;BME280;28584;42.636;23.294;2023-02-17T13:05:26;161698.28;;;11.81;41.88
42945;BME280;28584;42.636;23.294;2023-02-17T13:07:58;161723.69;;;11.90;41.90
42945;BME280;28584;42.636;23.294;2023-02-17T13:13:30;161737.03;;;11.95;41.89
42945;BME280;28584;42.636;23.294;2023-02-17T13:16:09;161746.44;;;11.99;41.11
42945;BME280;28584;42.636;23.294;2023-02-17T13:18:41;161765.16;;;12.06;40.98
42945;BME280;28584;42.636;23.294;2023-02-17T13:21:25;161761.13;;;12.04;40.85
42945;BME280;28584;42.636;23.294;2023-02-17T13:24:00;161762.50;;;12.05;40.84
42945;BME280;28584;42.636;23.294;2023-02-17T13:26:28;161753.09;;;12.01;40.84
42945;BME280;28584;42.636;23.294;2023-02-17T13:29:08;161738.41;;;11.96;40.87
42945;BME280;28584;42.636;23.294;2023-02-17T13:31:53;161722.34;;;11.90;40.89
42945;BME280;28584;42.636;23.294;2023-02-17T13:34:45;161726.34;;;11.91;40.66
42945;BME280;28584;42.636;23.294;2023-02-17T13:40:07;161770.47;;;12.08;40.34
42945;BME280;28584;42.636;23.294;2023-02-17T13:42:50;161773.19;;;12.09;40.18
42945;BME280;28584;42.636;23.294;2023-02-17T13:45:27;161769.16;;;12.07;39.81
42945;BME280;28584;42.636;23.294;2023-02-17T13:47:59;161753.09;;;12.01;39.48
42945;BME280;28584;42.636;23.294;2023-02-17T13:50:32;161771.81;;;12.08;39.70
42945;BME280;28584;42.636;23.294;2023-02-17T13:53:00;161755.75;;;12.02;39.83
42945;BME280;28584;42.636;23.294;2023-02-17T13:55:26;161754.47;;;12.02;39.96
42945;BME280;28584;42.636;23.294;2023-02-17T13:57:53;161741.06;;;11.97;39.59
42945;BME280;28584;42.636;23.294;2023-02-17T14:00:30;161741.06;;;11.97;38.99
42945;BME280;28584;42.636;23.294;2023-02-17T14:07:56;161727.72;;;11.92;39.05
42945;BME280;28584;42.636;23.294;2023-02-17T14:10:25;161703.63;;;11.83;39.45
42945;BME280;28584;42.636;23.294;2023-02-17T14:12:52;161684.91;;;11.76;39.18
42945;BME280;28584;42.636;23.294;2023-02-17T14:15:22;161670.19;;;11.70;38.76
42945;BME280;28584;42.636;23.294;2023-02-17T14:17:48;161655.50;;;11.65;39.08
42945;BME280;28584;42.636;23.294;2023-02-17T14:23:08;161556.50;;;11.27;39.74
42945;BME280;28584;42.636;23.294;2023-02-17T14:25:39;161519.06;;;11.13;39.31
42945;BME280;28584;42.636;23.294;2023-02-17T14:28:20;161492.34;;;11.03;39.45
42945;BME280;28584;42.636;23.294;2023-02-17T14:30:46;161487.03;;;11.01;39.52
42945;BME280;28584;42.636;23.294;2023-02-17T14:35:55;161454.91;;;10.89;40.32
42945;BME280;28584;42.636;23.294;2023-02-17T14:40:56;161417.50;;;10.75;40.39
42945;BME280;28584;42.636;23.294;2023-02-17T14:43:22;161416.19;;;10.75;40.89